sensor_id;sensor_type;location;lat;lon;timestamp;P1;durP1;ratioP1;P2;durP2;ratioP2
75340;SDS011;64931;47.562;18.920;2023-03-04T14:17:14;14.40;;;8.20;;
75340;SDS011;64931;47.562;18.920;2023-03-04T14:19:43;15.90;;;9.30;;
75340;SDS011;64931;47.562;18.920;2023-03-04T14:22:24;15.60;;;9.30;;
75340;SDS011;64931;47.562;18.920;2023-03-04T14:27:26;12.60;;;7.20;;
75340;SDS011;64931;47.562;18.920;2023-03-04T14:29:56;14.70;;;9.30;;
75340;SDS011;64931;47.562;18.920;2023-03-04T14:32:22;15.40;;;8.90;;
75340;SDS011;64931;47.562;18.920;2023-03-04T14:34:48;16.20;;;8.30;;
75340;SDS011;64931;47.562;18.920;2023-03-04T14:37:18;13.20;;;7.80;;
75340;SDS011;64931;47.562;18.920;2023-03-04T14:39:45;15.80;;;9.20;;
75340;SDS011;64931;47.562;18.920;2023-03-04T14:42:13;15.20;;;9.50;;
75340;SDS011;64931;47.562;18.920;2023-03-04T14:44:43;18.70;;;10.40;;
75340;SDS011;64931;47.562;18.920;2023-03-04T14:49:47;15.20;;;8.50;;
75340;SDS011;64931;47.562;18.920;2023-03-04T14:52:25;16.90;;;10.20;;
75340;SDS011;64931;47.562;18.920;2023-03-04T14:55:37;16.90;;;10.40;;
75340;SDS011;64931;47.562;18.920;2023-03-04T14:57:51;17.60;;;10.70;;
75340;SDS011;64931;47.562;18.920;2023-03-04T15:00:30;14.60;;;9.40;;
75340;SDS011;64931;47.562;18.920;2023-03-04T15:05:41;16.50;;;9.40;;
75340;SDS011;64931;47.562;18.920;2023-03-04T15:10:53;16.40;;;9.70;;
75340;SDS011;64931;47.562;18.920;2023-03-04T15:13:42;18.60;;;10.20;;
75340;SDS011;64931;47.562;18.920;2023-03-04T15:16:10;17.40;;;11.40;;
75340;SDS011;64931;47.562;18.920;2023-03-04T15:18:38;17.60;;;10.20;;
75340;SDS011;64931;47.562;18.920;2023-03-04T15:21:05;17.80;;;10.20;;
75340;SDS011;64931;47.562;18.920;2023-03-04T15:23:46;20.20;;;12.00;;
75340;SDS011;64931;47.562;18.920;2023-03-04T15:26:11;20.10;;;11.50;;
75340;SDS011;64931;47.562;18.920;2023-03-04T15:28:38;18.50;;;12.70;;
75340;SDS011;64931;47.562;18.920;2023-03-04T15:33:37;19.20;;;10.60;;
75340;SDS011;64931;47.562;18.920;2023-03-04T15:36:03;22.40;;;14.10;;
75340;SDS011;64931;47.562;18.920;2023-03-04T15:38:29;21.20;;;12.20;;
75340;SDS011;64931;47.562;18.920;2023-03-04T15:40:55;23.10;;;14.30;;
75340;SDS011;64931;47.562;18.920;2023-03-04T15:43:22;22.50;;;12.80;;
75340;SDS011;64931;47.562;18.920;2023-03-04T15:45:49;19.60;;;11.90;;
75340;SDS011;64931;47.562;18.920;2023-03-04T15:48:16;20.80;;;13.10;;
75340;SDS011;64931;47.562;18.920;2023-03-04T15:50:55;24.70;;;13.50;;
75340;SDS011;64931;47.562;18.920;2023-03-04T15:53:32;25.90;;;14.70;;
75340;SDS011;64931;47.562;18.920;2023-03-04T15:56:03;24.20;;;14.10;;
75340;SDS011;64931;47.562;18.920;2023-03-04T15:58:29;22.30;;;13.20;;
75340;SDS011;64931;47.562;18.920;2023-03-04T16:00:55;23.00;;;13.50;;
75340;SDS011;64931;47.562;18.920;2023-03-04T16:03:20;22.70;;;14.80;;
75340;SDS011;64931;47.562;18.920;2023-03-04T16:05:47;23.20;;;14.20;;
75340;SDS011;64931;47.562;18.920;2023-03-04T16:08:15;21.10;;;12.50;;
75340;SDS011;64931;47.562;18.920;2023-03-04T16:10:43;22.60;;;13.80;;
75340;SDS011;64931;47.562;18.920;2023-03-04T16:13:16;21.60;;;12.40;;
75340;SDS011;64931;47.562;18.920;2023-03-04T16:15:44;22.20;;;12.70;;
75340;SDS011;64931;47.562;18.920;2023-03-04T16:18:10;21.60;;;11.90;;
75340;SDS011;64931;47.562;18.920;2023-03-04T16:20:37;23.20;;;12.20;;
75340;SDS011;64931;47.562;18.920;2023-03-04T16:23:03;20.90;;;12.20;;
75340;SDS011;64931;47.562;18.920;2023-03-04T16:25:28;23.10;;;13.90;;
75340;SDS011;64931;47.562;18.920;2023-03-04T16:27:55;21.50;;;12.90;;
75340;SDS011;64931;47.562;18.920;2023-03-04T16:30:23;21.90;;;11.00;;
75340;SDS011;64931;47.562;18.920;2023-03-04T16:32:50;21.30;;;13.50;;
75340;SDS011;64931;47.562;18.920;2023-03-04T16:35:16;20.10;;;10.70;;
75340;SDS011;64931;47.562;18.920;2023-03-04T16:37:42;21.40;;;11.60;;
75340;SDS011;64931;47.562;18.920;2023-03-04T16:40:09;21.50;;;11.30;;
75340;SDS011;64931;47.562;18.920;2023-03-04T16:42:37;22.90;;;11.80;;
75340;SDS011;64931;47.562;18.920;2023-03-04T16:45:02;23.40;;;12.50;;
75340;SDS011;64931;47.562;18.920;2023-03-04T16:47:29;22.50;;;14.00;;
75340;SDS011;64931;47.562;18.920;2023-03-04T16:49:54;22.20;;;11.80;;
75340;SDS011;64931;47.562;18.920;2023-03-04T16:52:24;20.80;;;11.80;;
75340;SDS011;64931;47.562;18.920;2023-03-04T16:54:50;21.50;;;12.30;;
75340;SDS011;64931;47.562;18.920;2023-03-04T16:57:16;21.90;;;13.70;;
75340;SDS011;64931;47.562;18.920;2023-03-04T16:59:41;22.80;;;13.80;;
75340;SDS011;64931;47.562;18.920;2023-03-04T17:02:14;22.80;;;13.10;;
75340;SDS011;64931;47.562;18.920;2023-03-04T17:04:41;20.40;;;12.20;;
75340;SDS011;64931;47.562;18.920;2023-03-04T17:07:07;20.90;;;13.90;;
75340;SDS011;64931;47.562;18.920;2023-03-04T17:09:33;21.40;;;12.50;;
75340;SDS011;64931;47.562;18.920;2023-03-04T17:11:58;20.70;;;11.60;;
75340;SDS011;64931;47.562;18.920;2023-03-04T17:14:24;20.60;;;13.70;;
75340;SDS011;64931;47.562;18.920;2023-03-04T17:16:49;19.50;;;11.00;;
75340;SDS011;64931;47.562;18.920;2023-03-04T17:19:14;21.20;;;12.00;;
75340;SDS011;64931;47.562;18.920;2023-03-04T17:21:40;23.30;;;13.20;;
75340;SDS011;64931;47.562;18.920;2023-03-04T17:24:05;22.00;;;12.60;;
75340;SDS011;64931;47.562;18.920;2023-03-04T17:26:33;22.10;;;15.70;;
75340;SDS011;64931;47.562;18.920;2023-03-04T17:28:59;23.20;;;14.20;;
75340;SDS011;64931;47.562;18.920;2023-03-04T17:31:24;21.90;;;13.40;;
75340;SDS011;64931;47.562;18.920;2023-03-04T17:33:49;23.30;;;13.30;;
75340;SDS011;64931;47.562;18.920;2023-03-04T17:36:16;23.20;;;12.60;;
75340;SDS011;64931;47.562;18.920;2023-03-04T17:38:43;25.00;;;13.10;;
75340;SDS011;64931;47.562;18.920;2023-03-04T17:41:10;22.20;;;13.70;;
75340;SDS011;64931;47.562;18.920;2023-03-04T17:43:41;25.60;;;14.20;;
75340;SDS011;64931;47.562;18.920;2023-03-04T17:46:11;24.20;;;16.80;;
75340;SDS011;64931;47.562;18.920;2023-03-04T17:48:37;27.40;;;15.00;;
75340;SDS011;64931;47.562;18.920;2023-03-04T17:51:03;26.40;;;17.30;;
75340;SDS011;64931;47.562;18.920;2023-03-04T17:53:29;27.40;;;15.30;;
75340;SDS011;64931;47.562;18.920;2023-03-04T17:55:55;26.60;;;16.80;;
75340;SDS011;64931;47.562;18.920;2023-03-04T17:58:22;28.50;;;16.80;;
75340;SDS011;64931;47.562;18.920;2023-03-04T18:00:48;26.10;;;16.40;;
75340;SDS011;64931;47.562;18.920;2023-03-04T18:03:16;28.20;;;14.60;;
75340;SDS011;64931;47.562;18.920;2023-03-04T18:05:41;28.50;;;15.70;;
75340;SDS011;64931;47.562;18.920;2023-03-04T18:08:07;28.10;;;20.10;;
75340;SDS011;64931;47.562;18.920;2023-03-04T18:10:32;28.90;;;17.90;;
75340;SDS011;64931;47.562;18.920;2023-03-04T18:12:58;28.10;;;15.20;;
75340;SDS011;64931;47.562;18.920;2023-03-04T18:15:23;30.70;;;19.70;;
75340;SDS011;64931;47.562;18.920;2023-03-04T18:17:49;27.50;;;15.90;;
75340;SDS011;64931;47.562;18.920;2023-03-04T18:20:14;31.10;;;17.80;;
75340;SDS011;64931;47.562;18.920;2023-03-04T18:22:40;30.00;;;17.20;;
75340;SDS011;64931;47.562;18.920;2023-03-04T18:25:06;28.70;;;16.00;;
75340;SDS011;64931;47.562;18.920;2023-03-04T18:30:04;29.80;;;19.10;;
75340;SDS011;64931;47.562;18.920;2023-03-04T18:32:31;28.80;;;16.80;;
75340;SDS011;64931;47.562;18.920;2023-03-04T18:34:57;29.00;;;17.10;;
75340;SDS011;64931;47.562;18.920;2023-03-04T18:37:23;26.00;;;17.30;;
75340;SDS011;64931;47.562;18.920;2023-03-04T18:39:48;24.70;;;12.80;;
75340;SDS011;64931;47.562;18.920;2023-03-04T18:42:13;24.20;;;11.50;;
75340;SDS011;64931;47.562;18.920;2023-03-04T18:44:39;22.50;;;15.00;;
75340;SDS011;64931;47.562;18.920;2023-03-04T18:47:04;23.70;;;12.50;;
75340;SDS011;64931;47.562;18.920;2023-03-04T18:49:31;23.60;;;13.70;;
75340;SDS011;64931;47.562;18.920;2023-03-04T18:51:56;20.70;;;11.90;;
75340;SDS011;64931;47.562;18.920;2023-03-04T18:54:22;21.50;;;12.80;;
75340;SDS011;64931;47.562;18.920;2023-03-04T18:56:49;19.90;;;11.90;;
75340;SDS011;64931;47.562;18.920;2023-03-04T18:59:20;20.70;;;11.80;;
75340;SDS011;64931;47.562;18.920;2023-03-04T19:01:47;20.00;;;10.50;;
75340;SDS011;64931;47.562;18.920;2023-03-04T19:04:14;20.30;;;11.40;;
75340;SDS011;64931;47.562;18.920;2023-03-04T19:06:40;18.00;;;8.70;;
75340;SDS011;64931;47.562;18.920;2023-03-04T19:09:06;18.10;;;10.90;;
75340;SDS011;64931;47.562;18.920;2023-03-04T19:11:32;18.10;;;13.50;;
75340;SDS011;64931;47.562;18.920;2023-03-04T19:13:58;20.10;;;10.90;;
75340;SDS011;64931;47.562;18.920;2023-03-04T19:16:23;16.00;;;8.40;;
75340;SDS011;64931;47.562;18.920;2023-03-04T19:18:49;17.50;;;10.00;;
75340;SDS011;64931;47.562;18.920;2023-03-04T19:21:15;16.60;;;9.60;;
75340;SDS011;64931;47.562;18.920;2023-03-04T19:23:40;17.10;;;9.30;;
75340;SDS011;64931;47.562;18.920;2023-03-04T19:26:06;15.60;;;10.10;;
75340;SDS011;64931;47.562;18.920;2023-03-04T19:28:32;17.90;;;8.50;;
75340;SDS011;64931;47.562;18.920;2023-03-04T19:31:03;13.90;;;9.20;;
75340;SDS011;64931;47.562;18.920;2023-03-04T19:33:29;14.00;;;8.30;;
75340;SDS011;64931;47.562;18.920;2023-03-04T19:35:55;16.40;;;10.70;;
75340;SDS011;64931;47.562;18.920;2023-03-04T19:38:20;13.80;;;8.90;;
75340;SDS011;64931;47.562;18.920;2023-03-04T19:40:46;14.90;;;8.10;;
75340;SDS011;64931;47.562;18.920;2023-03-04T19:43:12;13.80;;;8.40;;
75340;SDS011;64931;47.562;18.920;2023-03-04T19:45:38;14.80;;;8.10;;
75340;SDS011;64931;47.562;18.920;2023-03-04T19:48:05;15.30;;;7.60;;
75340;SDS011;64931;47.562;18.920;2023-03-04T19:50:30;17.60;;;9.10;;
75340;SDS011;64931;47.562;18.920;2023-03-04T19:52:56;12.50;;;7.10;;
75340;SDS011;64931;47.562;18.920;2023-03-04T19:55:21;14.20;;;9.40;;
75340;SDS011;64931;47.562;18.920;2023-03-04T19:57:47;15.30;;;7.40;;
75340;SDS011;64931;47.562;18.920;2023-03-04T20:00:12;14.40;;;7.10;;
75340;SDS011;64931;47.562;18.920;2023-03-04T20:02:39;15.00;;;8.80;;
75340;SDS011;64931;47.562;18.920;2023-03-04T20:05:06;14.80;;;8.50;;
75340;SDS011;64931;47.562;18.920;2023-03-04T20:07:31;14.70;;;7.90;;
75340;SDS011;64931;47.562;18.920;2023-03-04T20:09:57;15.00;;;8.20;;
75340;SDS011;64931;47.562;18.920;2023-03-04T20:12:22;13.50;;;8.40;;
75340;SDS011;64931;47.562;18.920;2023-03-04T20:14:48;14.10;;;7.30;;
75340;SDS011;64931;47.562;18.920;2023-03-04T20:17:15;12.90;;;6.80;;
75340;SDS011;64931;47.562;18.920;2023-03-04T20:19:41;13.60;;;7.00;;
75340;SDS011;64931;47.562;18.920;2023-03-04T20:22:06;13.90;;;7.70;;
75340;SDS011;64931;47.562;18.920;2023-03-04T20:24:32;11.20;;;5.90;;
75340;SDS011;64931;47.562;18.920;2023-03-04T20:26:58;11.50;;;6.40;;
75340;SDS011;64931;47.562;18.920;2023-03-04T20:29:24;11.90;;;6.00;;
75340;SDS011;64931;47.562;18.920;2023-03-04T20:31:51;13.50;;;7.70;;
75340;SDS011;64931;47.562;18.920;2023-03-04T20:34:17;12.80;;;6.00;;
75340;SDS011;64931;47.562;18.920;2023-03-04T20:36:43;13.90;;;7.30;;
75340;SDS011;64931;47.562;18.920;2023-03-04T20:39:08;14.70;;;8.40;;
75340;SDS011;64931;47.562;18.920;2023-03-04T20:41:37;14.20;;;7.60;;
75340;SDS011;64931;47.562;18.920;2023-03-04T20:44:03;19.60;;;8.70;;
75340;SDS011;64931;47.562;18.920;2023-03-04T20:49:00;17.10;;;8.50;;
75340;SDS011;64931;47.562;18.920;2023-03-04T20:51:27;13.70;;;6.70;;
75340;SDS011;64931;47.562;18.920;2023-03-04T20:53:54;18.10;;;7.20;;
75340;SDS011;64931;47.562;18.920;2023-03-04T20:56:20;31.00;;;12.70;;
75340;SDS011;64931;47.562;18.920;2023-03-04T20:58:47;22.10;;;11.60;;
75340;SDS011;64931;47.562;18.920;2023-03-04T21:01:13;16.70;;;8.70;;
75340;SDS011;64931;47.562;18.920;2023-03-04T21:03:38;19.10;;;8.90;;
75340;SDS011;64931;47.562;18.920;2023-03-04T21:06:06;24.60;;;10.60;;
75340;SDS011;64931;47.562;18.920;2023-03-04T21:08:32;20.90;;;8.50;;
75340;SDS011;64931;47.562;18.920;2023-03-04T21:10:58;19.70;;;7.70;;
75340;SDS011;64931;47.562;18.920;2023-03-04T21:13:24;20.50;;;9.40;;
75340;SDS011;64931;47.562;18.920;2023-03-04T21:15:55;18.20;;;8.50;;
75340;SDS011;64931;47.562;18.920;2023-03-04T21:18:21;16.00;;;7.40;;
75340;SDS011;64931;47.562;18.920;2023-03-04T21:20:47;13.40;;;7.40;;
75340;SDS011;64931;47.562;18.920;2023-03-04T21:23:13;15.90;;;7.20;;
75340;SDS011;64931;47.562;18.920;2023-03-04T21:25:39;15.30;;;7.50;;
75340;SDS011;64931;47.562;18.920;2023-03-04T21:28:05;20.50;;;10.20;;
75340;SDS011;64931;47.562;18.920;2023-03-04T21:30:31;18.80;;;9.30;;
75340;SDS011;64931;47.562;18.920;2023-03-04T21:32:57;20.20;;;10.40;;
75340;SDS011;64931;47.562;18.920;2023-03-04T21:35:23;15.80;;;9.10;;
75340;SDS011;64931;47.562;18.920;2023-03-04T21:37:48;17.40;;;10.00;;
75340;SDS011;64931;47.562;18.920;2023-03-04T21:40:15;21.10;;;11.50;;
75340;SDS011;64931;47.562;18.920;2023-03-04T21:42:41;18.30;;;10.50;;
75340;SDS011;64931;47.562;18.920;2023-03-04T21:45:06;22.60;;;10.50;;
75340;SDS011;64931;47.562;18.920;2023-03-04T21:47:32;17.70;;;9.00;;
75340;SDS011;64931;47.562;18.920;2023-03-04T21:49:58;20.30;;;9.40;;
75340;SDS011;64931;47.562;18.920;2023-03-04T21:52:24;16.70;;;9.20;;
75340;SDS011;64931;47.562;18.920;2023-03-04T21:54:49;18.00;;;9.60;;
75340;SDS011;64931;47.562;18.920;2023-03-04T21:57:15;18.00;;;10.50;;
75340;SDS011;64931;47.562;18.920;2023-03-04T21:59:41;18.80;;;9.00;;
75340;SDS011;64931;47.562;18.920;2023-03-04T22:02:10;18.00;;;10.30;;
75340;SDS011;64931;47.562;18.920;2023-03-04T22:04:39;23.10;;;11.80;;
75340;SDS011;64931;47.562;18.920;2023-03-04T22:07:05;23.00;;;11.20;;
75340;SDS011;64931;47.562;18.920;2023-03-04T22:09:30;22.50;;;10.30;;
75340;SDS011;64931;47.562;18.920;2023-03-04T22:11:56;16.50;;;9.40;;
75340;SDS011;64931;47.562;18.920;2023-03-04T22:14:21;17.00;;;10.70;;
75340;SDS011;64931;47.562;18.920;2023-03-04T22:16:47;17.90;;;9.70;;
75340;SDS011;64931;47.562;18.920;2023-03-04T22:19:13;17.50;;;9.50;;
75340;SDS011;64931;47.562;18.920;2023-03-04T22:21:38;17.70;;;8.80;;
75340;SDS011;64931;47.562;18.920;2023-03-04T22:24:04;16.00;;;10.70;;
75340;SDS011;64931;47.562;18.920;2023-03-04T22:26:29;16.10;;;9.50;;
75340;SDS011;64931;47.562;18.920;2023-03-04T22:28:57;16.40;;;8.90;;
75340;SDS011;64931;47.562;18.920;2023-03-04T22:31:25;17.90;;;10.50;;
75340;SDS011;64931;47.562;18.920;2023-03-04T22:33:56;18.70;;;9.60;;
75340;SDS011;64931;47.562;18.920;2023-03-04T22:36:29;17.20;;;9.90;;
75340;SDS011;64931;47.562;18.920;2023-03-04T22:38:56;14.90;;;8.10;;
75340;SDS011;64931;47.562;18.920;2023-03-04T22:41:22;15.70;;;9.10;;
75340;SDS011;64931;47.562;18.920;2023-03-04T22:43:48;18.90;;;9.00;;
75340;SDS011;64931;47.562;18.920;2023-03-04T22:46:15;14.40;;;8.00;;
75340;SDS011;64931;47.562;18.920;2023-03-04T22:48:46;15.20;;;7.90;;
75340;SDS011;64931;47.562;18.920;2023-03-04T22:51:13;18.30;;;10.50;;
75340;SDS011;64931;47.562;18.920;2023-03-04T22:53:38;14.80;;;8.20;;
75340;SDS011;64931;47.562;18.920;2023-03-04T22:56:06;14.70;;;7.90;;
75340;SDS011;64931;47.562;18.920;2023-03-04T23:00:57;16.70;;;10.00;;
75340;SDS011;64931;47.562;18.920;2023-03-04T23:03:23;15.50;;;7.70;;
75340;SDS011;64931;47.562;18.920;2023-03-04T23:05:48;14.90;;;7.80;;
75340;SDS011;64931;47.562;18.920;2023-03-04T23:08:13;18.50;;;9.50;;
75340;SDS011;64931;47.562;18.920;2023-03-04T23:10:40;16.80;;;9.80;;
75340;SDS011;64931;47.562;18.920;2023-03-04T23:13:06;17.90;;;9.80;;
75340;SDS011;64931;47.562;18.920;2023-03-04T23:15:31;17.90;;;11.40;;
75340;SDS011;64931;47.562;18.920;2023-03-04T23:17:57;16.80;;;11.00;;
75340;SDS011;64931;47.562;18.920;2023-03-04T23:20:22;17.50;;;10.90;;
75340;SDS011;64931;47.562;18.920;2023-03-04T23:22:48;19.20;;;12.50;;
75340;SDS011;64931;47.562;18.920;2023-03-04T23:25:14;14.20;;;8.70;;
75340;SDS011;64931;47.562;18.920;2023-03-04T23:27:41;19.10;;;9.40;;
75340;SDS011;64931;47.562;18.920;2023-03-04T23:30:08;19.60;;;9.40;;
75340;SDS011;64931;47.562;18.920;2023-03-04T23:32:36;20.30;;;11.20;;
75340;SDS011;64931;47.562;18.920;2023-03-04T23:35:02;18.70;;;10.10;;
75340;SDS011;64931;47.562;18.920;2023-03-04T23:37:27;20.00;;;10.70;;
75340;SDS011;64931;47.562;18.920;2023-03-04T23:39:53;22.90;;;11.50;;
75340;SDS011;64931;47.562;18.920;2023-03-04T23:42:18;19.70;;;11.80;;
75340;SDS011;64931;47.562;18.920;2023-03-04T23:44:44;20.10;;;14.10;;
75340;SDS011;64931;47.562;18.920;2023-03-04T23:47:09;21.60;;;14.20;;
75340;SDS011;64931;47.562;18.920;2023-03-04T23:49:34;19.50;;;11.10;;
75340;SDS011;64931;47.562;18.920;2023-03-04T23:52:00;21.20;;;10.30;;
75340;SDS011;64931;47.562;18.920;2023-03-04T23:54:26;19.30;;;10.60;;
75340;SDS011;64931;47.562;18.920;2023-03-04T23:56:51;18.70;;;10.10;;
75340;SDS011;64931;47.562;18.920;2023-03-04T23:59:16;19.10;;;10.20;;
